Time;durP1;ratioP1;P1;durP2;ratioP2;P2;SDS_P1;SDS_P2;PMS_P1;PMS_P2;Temp;Humidity;BMP_temperature;BMP_pressure;BME280_temperature;BME280_humidity;BME280_pressure;Samples;Min_cycle;Max_cycle;Signal;HPM_P1;HPM_P2
2022/08/30 00:02:13;;;;;;;5.40;3.45;;;23.60;99.90;;;;;;5111902;28;20073;-72
2022/08/30 00:04:38;;;;;;;3.88;3.58;;;23.60;99.90;;;;;;5109058;28;20445;-72
2022/08/30 00:07:04;;;;;;;4.40;3.38;;;23.50;99.90;;;;;;5111782;28;20028;-72
2022/08/30 00:09:31;;;;;;;7.53;4.07;;;23.50;99.90;;;;;;5107546;28;20028;-72
2022/08/30 00:11:57;;;;;;;4.40;3.28;;;23.50;99.90;;;;;;5110850;28;20482;-73
2022/08/30 00:14:25;;;;;;;5.28;3.55;;;23.40;99.90;;;;;;5105545;28;20023;-72
2022/08/30 00:16:50;;;;;;;4.22;3.83;;;23.40;99.90;;;;;;5113929;28;20478;-72
2022/08/30 00:19:16;;;;;;;3.72;3.42;;;23.40;99.90;;;;;;5105087;28;20050;-73
2022/08/30 00:21:42;;;;;;;3.65;3.38;;;23.40;99.90;;;;;;5113578;28;20106;-72
2022/08/30 00:24:08;;;;;;;4.32;3.40;;;23.30;99.90;;;;;;5106575;28;20465;-72
2022/08/30 00:26:33;;;;;;;6.38;3.45;;;23.30;99.90;;;;;;5113395;28;20030;-72
2022/08/30 00:28:59;;;;;;;4.20;3.80;;;23.20;99.90;;;;;;5099364;28;20054;-72
2022/08/30 00:31:25;;;;;;;5.38;3.88;;;23.20;99.90;;;;;;5093103;28;20466;-73
2022/08/30 00:33:50;;;;;;;4.20;3.70;;;23.20;99.90;;;;;;5103686;28;20080;-72
2022/08/30 00:36:16;;;;;;;4.07;3.67;;;23.10;99.90;;;;;;5111973;28;20055;-73
2022/08/30 00:38:42;;;;;;;4.45;3.58;;;23.10;99.90;;;;;;5100578;28;20031;-73
2022/08/30 00:41:07;;;;;;;4.38;3.38;;;23.00;99.90;;;;;;5093140;28;20024;-72
2022/08/30 00:43:34;;;;;;;4.63;3.50;;;23.00;99.90;;;;;;5098963;28;20640;-72
2022/08/30 00:46:03;;;;;;;6.93;3.58;;;23.00;99.90;;;;;;5110540;28;20047;-72
2022/08/30 00:48:31;;;;;;;4.50;3.60;;;23.00;99.90;;;;;;5106986;27;20110;-72
2022/08/30 00:51:04;;;;;;;5.03;3.72;;;23.00;99.90;;;;;;5111934;28;20035;-72
2022/08/30 00:53:36;;;;;;;5.55;4.10;;;23.00;99.90;;;;;;5102631;28;20115;-72
2022/08/30 00:56:04;;;;;;;4.68;3.70;;;23.10;99.90;;;;;;5092513;28;20032;-72
2022/08/30 00:58:43;;;;;;;4.45;3.70;;;23.00;99.90;;;;;;5100485;28;20394;-72
2022/08/30 01:01:09;;;;;;;5.47;3.85;;;23.10;99.90;;;;;;5111932;28;20051;-72
2022/08/30 01:03:36;;;;;;;10.05;3.85;;;23.10;99.90;;;;;;5107635;28;20023;-72
2022/08/30 01:06:03;;;;;;;4.70;3.92;;;23.10;99.90;;;;;;5109931;28;20024;-72
2022/08/30 01:08:29;;;;;;;4.22;3.80;;;23.10;99.90;;;;;;5107190;28;20031;-72
2022/08/30 01:10:56;;;;;;;4.13;3.63;;;23.10;99.90;;;;;;5098062;28;20028;-72
2022/08/30 01:13:24;;;;;;;6.18;3.58;;;23.10;99.90;;;;;;5095962;28;20047;-72
2022/08/30 01:15:50;;;;;;;4.88;4.00;;;23.10;99.90;;;;;;5093553;28;20028;-72
2022/08/30 01:18:17;;;;;;;7.10;3.47;;;23.10;99.90;;;;;;5097492;28;20055;-73
2022/08/30 01:21:03;;;;;;;5.63;3.92;;;23.10;99.90;;;;;;5107918;28;20213;-72
2022/08/30 01:23:31;;;;;;;4.38;3.50;;;23.10;99.90;;;;;;5105450;28;20020;-73
2022/08/30 01:25:57;;;;;;;6.03;3.70;;;23.00;99.90;;;;;;5107883;28;20051;-73
2022/08/30 01:28:26;;;;;;;3.78;3.13;;;23.00;99.90;;;;;;5106161;28;20020;-73
2022/08/30 01:30:52;;;;;;;4.47;3.80;;;23.00;99.90;;;;;;5109730;28;20026;-73
2022/08/30 01:33:21;;;;;;;4.88;3.60;;;23.00;99.90;;;;;;5104642;28;20016;-73
2022/08/30 01:35:48;;;;;;;3.60;3.20;;;23.00;99.90;;;;;;5110963;28;20106;-72
2022/08/30 01:38:16;;;;;;;4.80;3.60;;;23.00;99.90;;;;;;5105122;28;20027;-73
2022/08/30 01:40:42;;;;;;;8.63;4.13;;;23.00;99.90;;;;;;5093148;28;20402;-72
2022/08/30 01:43:11;;;;;;;4.88;3.83;;;23.00;99.90;;;;;;5093562;28;20023;-72
2022/08/30 01:45:36;;;;;;;4.40;4.00;;;23.00;99.90;;;;;;5092913;28;20020;-73
2022/08/30 01:48:02;;;;;;;4.32;3.72;;;23.00;99.90;;;;;;5094789;28;20106;-72
2022/08/30 01:50:28;;;;;;;4.78;3.72;;;23.00;99.90;;;;;;5110197;28;20089;-73
2022/08/30 01:52:54;;;;;;;5.50;3.65;;;23.10;99.90;;;;;;5104940;28;20030;-72
2022/08/30 01:55:19;;;;;;;4.97;3.25;;;23.00;99.90;;;;;;5093195;28;20024;-73
2022/08/30 01:57:46;;;;;;;4.03;3.50;;;23.10;99.90;;;;;;5094357;28;20039;-73
2022/08/30 02:00:12;;;;;;;3.55;3.25;;;23.10;99.90;;;;;;5107584;28;20160;-72
2022/08/30 02:02:38;;;;;;;4.32;3.55;;;23.10;99.90;;;;;;5106238;28;20067;-72
2022/08/30 02:05:05;;;;;;;7.13;3.80;;;23.10;99.90;;;;;;5108740;28;20031;-72
2022/08/30 02:07:30;;;;;;;4.50;3.65;;;23.20;99.90;;;;;;5106411;28;20020;-73
2022/08/30 02:09:56;;;;;;;3.78;3.47;;;23.20;99.90;;;;;;5108157;28;20023;-73
2022/08/30 02:12:22;;;;;;;3.55;3.25;;;23.20;99.90;;;;;;5106136;28;20069;-73
2022/08/30 02:14:48;;;;;;;4.50;3.28;;;23.20;99.90;;;;;;5107232;28;20028;-72
2022/08/30 02:17:15;;;;;;;4.78;3.75;;;23.20;99.90;;;;;;5107899;28;20089;-72
2022/08/30 02:19:41;;;;;;;3.90;3.35;;;23.20;99.90;;;;;;5106165;28;20023;-73
2022/08/30 02:22:08;;;;;;;4.07;3.53;;;23.20;99.90;;;;;;5110200;28;20465;-72
2022/08/30 02:24:34;;;;;;;5.05;3.70;;;23.10;99.90;;;;;;5096393;28;20023;-72
2022/08/30 02:27:00;;;;;;;4.00;3.63;;;23.10;99.90;;;;;;5091560;28;20497;-72
2022/08/30 02:29:26;;;;;;;3.80;3.50;;;23.10;99.90;;;;;;5104145;28;20036;-71
2022/08/30 02:31:52;;;;;;;3.80;3.50;;;23.10;99.90;;;;;;5111701;28;20431;-72
2022/08/30 02:34:18;;;;;;;6.22;4.28;;;23.10;99.90;;;;;;5103917;28;20076;-72
2022/08/30 02:36:45;;;;;;;4.53;3.80;;;23.00;99.90;;;;;;5110962;28;20044;-72
2022/08/30 02:39:12;;;;;;;5.70;3.63;;;23.00;99.90;;;;;;5102612;28;20253;-72
2022/08/30 02:41:39;;;;;;;4.00;3.60;;;23.00;99.90;;;;;;5069801;28;20027;-72
2022/08/30 02:44:07;;;;;;;4.88;3.40;;;22.90;99.90;;;;;;5102566;28;20168;-72
2022/08/30 02:46:32;;;;;;;7.32;3.83;;;23.00;99.90;;;;;;5109790;28;20527;-72
2022/08/30 02:48:58;;;;;;;6.43;3.50;;;22.90;99.90;;;;;;5105336;28;20019;-72
2022/08/30 02:51:24;;;;;;;3.85;3.22;;;22.90;99.90;;;;;;5108443;28;20038;-72
2022/08/30 02:53:50;;;;;;;4.38;3.65;;;22.80;99.90;;;;;;5106178;28;20027;-72
2022/08/30 02:56:16;;;;;;;5.32;3.90;;;22.80;99.90;;;;;;5110041;28;20036;-72
2022/08/30 02:58:43;;;;;;;4.53;3.80;;;22.80;99.90;;;;;;5109118;28;20046;-72
2022/08/30 03:01:12;;;;;;;4.88;4.07;;;22.80;99.90;;;;;;5113009;28;20443;-71
2022/08/30 03:03:38;;;;;;;4.03;3.63;;;22.70;99.90;;;;;;5108975;28;20016;-72
2022/08/30 03:06:04;;;;;;;3.85;3.28;;;22.70;99.90;;;;;;5114049;27;20024;-72
2022/08/30 03:08:31;;;;;;;4.63;3.55;;;22.70;99.90;;;;;;5108797;28;20454;-72
2022/08/30 03:10:58;;;;;;;4.53;3.67;;;22.60;99.90;;;;;;5113788;28;20020;-72
2022/08/30 03:13:24;;;;;;;3.83;3.40;;;22.60;99.90;;;;;;5106889;28;20020;-72
2022/08/30 03:15:50;;;;;;;4.00;3.60;;;22.60;99.90;;;;;;5113614;28;20131;-72
2022/08/30 03:18:18;;;;;;;7.30;3.70;;;22.60;99.90;;;;;;5109052;28;20072;-72
2022/08/30 03:20:44;;;;;;;4.18;3.65;;;22.60;99.90;;;;;;5113654;28;20114;-72
2022/08/30 03:23:10;;;;;;;5.15;3.47;;;22.60;99.90;;;;;;5108636;28;20034;-72
2022/08/30 03:25:38;;;;;;;7.47;4.32;;;22.60;99.90;;;;;;5113489;28;20024;-72
2022/08/30 03:28:04;;;;;;;4.68;3.72;;;22.60;99.90;;;;;;5108824;28;20028;-72
2022/08/30 03:30:30;;;;;;;3.88;3.58;;;22.50;99.90;;;;;;5113014;28;20359;-72
2022/08/30 03:32:55;;;;;;;4.57;3.67;;;22.50;99.90;;;;;;5110526;28;20028;-72
2022/08/30 03:35:21;;;;;;;7.60;3.80;;;22.50;99.90;;;;;;5110289;28;20046;-72
2022/08/30 03:37:48;;;;;;;6.82;3.90;;;22.50;99.90;;;;;;5110248;28;20525;-72
2022/08/30 03:40:16;;;;;;;4.10;3.80;;;22.40;99.90;;;;;;5111386;28;20409;-72
2022/08/30 03:42:43;;;;;;;5.80;3.47;;;22.40;99.90;;;;;;5106461;28;20489;-72
2022/08/30 03:45:09;;;;;;;4.25;3.33;;;22.40;99.90;;;;;;5111748;28;20106;-72
2022/08/30 03:47:35;;;;;;;6.55;3.55;;;22.40;99.90;;;;;;5109483;28;20040;-72
2022/08/30 03:50:02;;;;;;;6.43;4.00;;;22.40;99.90;;;;;;5111682;28;20011;-72
2022/08/30 03:52:27;;;;;;;4.90;3.60;;;22.40;99.90;;;;;;5111225;28;20036;-73
2022/08/30 03:54:53;;;;;;;4.13;3.65;;;22.50;99.90;;;;;;5110320;28;20015;-72
2022/08/30 03:57:19;;;;;;;4.20;3.80;;;22.50;99.90;;;;;;5110944;28;20623;-72
2022/08/30 03:59:45;;;;;;;6.63;4.20;;;22.50;99.90;;;;;;5108141;28;20023;-72
2022/08/30 04:02:10;;;;;;;4.40;4.07;;;22.40;99.90;;;;;;5112201;28;20024;-72
2022/08/30 04:04:36;;;;;;;5.10;4.05;;;22.40;99.90;;;;;;5106038;28;20053;-72
2022/08/30 04:07:02;;;;;;;4.20;3.90;;;22.40;99.90;;;;;;5113471;28;20016;-72
2022/08/30 04:09:28;;;;;;;4.53;4.07;;;22.50;99.90;;;;;;5106986;28;20016;-72
2022/08/30 04:11:53;;;;;;;4.95;4.40;;;22.40;99.90;;;;;;5111398;28;20024;-73
2022/08/30 04:14:19;;;;;;;5.07;3.63;;;22.40;99.90;;;;;;5106594;28;20026;-72
2022/08/30 04:16:45;;;;;;;3.60;3.33;;;22.40;99.90;;;;;;5114001;28;20042;-72
2022/08/30 04:19:11;;;;;;;8.88;4.03;;;22.40;99.90;;;;;;5099153;28;20071;-73
2022/08/30 04:21:36;;;;;;;6.05;4.00;;;22.40;99.90;;;;;;5072919;28;20274;-72
2022/08/30 04:24:03;;;;;;;4.50;3.83;;;22.40;99.90;;;;;;5101963;28;20023;-73
2022/08/30 04:26:29;;;;;;;5.03;3.78;;;22.40;99.90;;;;;;5111367;28;20032;-72
2022/08/30 04:28:55;;;;;;;7.25;3.92;;;22.50;99.90;;;;;;5107620;28;20023;-72
2022/08/30 04:31:21;;;;;;;5.57;4.10;;;22.50;99.90;;;;;;5112319;28;20092;-72
2022/08/30 04:33:47;;;;;;;5.00;3.90;;;22.50;99.90;;;;;;5102174;28;20394;-72
2022/08/30 04:36:13;;;;;;;4.38;3.97;;;22.50;99.90;;;;;;5093014;28;20044;-72
2022/08/30 04:38:40;;;;;;;5.00;3.70;;;22.50;99.90;;;;;;5100469;28;20020;-72
2022/08/30 04:41:15;;;;;;;4.57;4.18;;;22.50;99.90;;;;;;5110821;28;20038;-72
2022/08/30 04:43:45;;;;;;;4.40;3.90;;;22.50;99.90;;;;;;5107458;28;20035;-72
2022/08/30 04:46:14;;;;;;;4.45;3.70;;;22.50;99.90;;;;;;5111962;28;20024;-72
2022/08/30 04:48:40;;;;;;;4.38;3.97;;;22.50;99.90;;;;;;5105822;28;20027;-73
2022/08/30 04:51:08;;;;;;;4.45;3.80;;;22.50;99.90;;;;;;5112009;28;20027;-73
2022/08/30 04:53:34;;;;;;;5.25;4.28;;;22.50;99.90;;;;;;5105754;28;20023;-73
2022/08/30 04:56:00;;;;;;;4.47;3.53;;;22.50;99.90;;;;;;5109681;28;20039;-73
2022/08/30 04:58:26;;;;;;;4.32;3.92;;;22.50;99.90;;;;;;5102840;28;20030;-73
2022/08/30 05:00:52;;;;;;;4.00;3.70;;;22.60;99.90;;;;;;5094391;28;20032;-73
2022/08/30 05:03:18;;;;;;;4.95;3.72;;;22.60;99.90;;;;;;5098658;28;20017;-73
2022/08/30 05:05:50;;;;;;;3.85;3.53;;;22.60;99.90;;;;;;5110519;28;20019;-74
2022/08/30 05:08:17;;;;;;;;;;;22.70;99.90;;;;;;5107539;28;20055;-74
2022/08/30 05:10:47;;;;;;;4.50;3.90;;;22.70;99.90;;;;;;5111185;28;20538;-73
2022/08/30 05:13:14;;;;;;;6.78;3.90;;;22.70;99.90;;;;;;5104496;28;20027;-74
2022/08/30 05:15:40;;;;;;;4.45;3.90;;;22.70;99.90;;;;;;5110730;28;20024;-74
2022/08/30 05:18:08;;;;;;;4.55;3.65;;;22.70;99.90;;;;;;5107020;27;20521;-75
2022/08/30 05:20:36;;;;;;;4.45;4.05;;;22.90;99.90;;;;;;5085928;28;20199;-74
2022/08/30 05:23:02;;;;;;;3.85;3.50;;;22.80;99.90;;;;;;5097096;28;20035;-75
2022/08/30 05:25:33;;;;;;;5.85;3.40;;;22.90;99.90;;;;;;5110495;28;20027;-73
2022/08/30 05:27:59;;;;;;;5.18;3.55;;;22.90;99.90;;;;;;5108641;28;20038;-74
2022/08/30 05:30:25;;;;;;;6.35;4.10;;;23.00;99.90;;;;;;5109955;28;20359;-75
2022/08/30 05:32:52;;;;;;;4.38;3.97;;;23.00;99.90;;;;;;5107654;28;20020;-75
2022/08/30 05:35:19;;;;;;;7.35;3.42;;;23.10;99.90;;;;;;5108946;27;20051;-74
2022/08/30 05:37:45;;;;;;;5.50;3.88;;;23.10;99.90;;;;;;5108058;28;20012;-73
2022/08/30 05:40:13;;;;;;;4.03;3.70;;;23.20;99.90;;;;;;5094762;28;20159;-76
2022/08/30 05:42:40;;;;;;;5.30;3.85;;;23.20;99.90;;;;;;5095777;28;20028;-73
2022/08/30 05:45:06;;;;;;;6.40;3.70;;;23.20;99.90;;;;;;5091057;28;20103;-73
2022/08/30 05:47:32;;;;;;;5.43;4.03;;;23.30;99.90;;;;;;5091580;28;20375;-74
2022/08/30 05:49:58;;;;;;;6.95;3.50;;;23.40;99.90;;;;;;5091360;28;20027;-74
2022/08/30 05:52:24;;;;;;;7.15;3.55;;;23.40;99.90;;;;;;5089443;28;20035;-74
2022/08/30 05:54:57;;;;;;;7.13;4.18;;;23.50;99.90;;;;;;5102722;28;20028;-74
2022/08/30 05:57:24;;;;;;;6.72;3.58;;;23.50;99.90;;;;;;5107082;28;20118;-74
2022/08/30 05:59:50;;;;;;;4.75;4.00;;;23.60;99.90;;;;;;5093622;28;20020;-74
2022/08/30 06:02:16;;;;;;;5.47;3.88;;;23.70;99.90;;;;;;5091158;28;20020;-74
2022/08/30 06:04:42;;;;;;;4.65;3.75;;;23.70;99.90;;;;;;5106892;28;20106;-75
2022/08/30 06:07:08;;;;;;;5.93;3.88;;;23.80;99.90;;;;;;5110150;28;20106;-74
2022/08/30 06:09:33;;;;;;;3.75;3.40;;;23.90;99.90;;;;;;5095823;28;20123;-73
2022/08/30 06:11:59;;;;;;;4.65;3.88;;;24.00;99.90;;;;;;5088127;28;20116;-74
2022/08/30 06:14:25;;;;;;;10.30;4.53;;;24.00;99.90;;;;;;5098960;28;20082;-75
2022/08/30 06:16:51;;;;;;;8.25;3.88;;;24.10;99.90;;;;;;5090189;28;20038;-80
2022/08/30 06:19:18;;;;;;;4.47;4.07;;;24.20;99.90;;;;;;5094290;28;20030;-73
2022/08/30 06:21:47;;;;;;;4.85;3.80;;;24.30;99.90;;;;;;5091542;28;20043;-74
2022/08/30 06:24:13;;;;;;;4.00;3.50;;;24.40;99.90;;;;;;5100677;28;20027;-73
2022/08/30 06:26:42;;;;;;;7.75;3.80;;;24.50;99.90;;;;;;5110069;28;20073;-74
2022/08/30 06:29:09;;;;;;;8.27;3.78;;;24.60;99.90;;;;;;5104607;28;20024;-75
2022/08/30 06:31:35;;;;;;;10.82;3.80;;;24.60;99.90;;;;;;5111659;28;20031;-75
2022/08/30 06:34:01;;;;;;;4.53;3.40;;;24.70;99.90;;;;;;5105699;28;20026;-76
2022/08/30 06:36:26;;;;;;;5.55;3.30;;;24.80;99.90;;;;;;5071065;28;20114;-74
2022/08/30 06:38:55;;;;;;;6.85;3.40;;;24.90;99.90;;;;;;5092252;28;20478;-74
2022/08/30 06:41:23;;;;;;;7.85;3.20;;;25.00;99.90;;;;;;5110856;28;20031;-74
2022/08/30 06:43:49;;;;;;;3.50;3.13;;;25.00;99.90;;;;;;5098700;28;20019;-73
2022/08/30 06:46:43;;;;;;;5.50;3.05;;;25.10;99.90;;;;;;5091051;28;20035;-74
2022/08/30 06:49:08;;;;;;;6.63;3.65;;;25.10;99.90;;;;;;5089257;28;20115;-74
2022/08/30 06:51:38;;;;;;;5.30;3.50;;;25.10;99.90;;;;;;5088349;28;20107;-73
2022/08/30 06:54:05;;;;;;;4.75;3.15;;;25.10;99.90;;;;;;5093048;28;20077;-79
2022/08/30 06:56:31;;;;;;;6.95;3.67;;;25.20;99.90;;;;;;5088535;28;20036;-82
2022/08/30 06:58:58;;;;;;;6.35;3.58;;;25.20;99.90;;;;;;5098068;28;20080;-74
2022/08/30 07:01:26;;;;;;;12.05;4.07;;;25.30;99.90;;;;;;5106473;28;20019;-73
2022/08/30 07:03:51;;;;;;;5.60;4.10;;;25.30;99.90;;;;;;5095927;28;20012;-73
2022/08/30 07:06:18;;;;;;;6.20;3.25;;;25.40;99.90;;;;;;5089529;28;20077;-74
2022/08/30 07:08:44;;;;;;;11.23;3.67;;;25.40;99.90;;;;;;5093994;28;20048;-74
2022/08/30 07:11:10;;;;;;;4.75;2.83;;;25.40;99.90;;;;;;5089206;28;20032;-73
2022/08/30 07:13:36;;;;;;;7.75;2.75;;;25.40;99.90;;;;;;5089474;28;20548;-74
2022/08/30 07:16:12;;;;;;;5.38;2.85;;;25.50;99.90;;;;;;5089369;28;20120;-73
2022/08/30 07:18:50;;;;;;;6.43;3.10;;;25.50;99.90;;;;;;5092186;28;20028;-74
2022/08/30 07:21:25;;;;;;;7.22;3.00;;;25.50;99.90;;;;;;5106356;28;20190;-77
2022/08/30 07:23:51;;;;;;;5.40;2.90;;;25.60;99.90;;;;;;5093208;28;20030;-74
2022/08/30 07:26:27;;;;;;;7.45;2.90;;;25.60;99.90;;;;;;5088377;28;20035;-92
2022/08/30 07:28:53;;;;;;;5.22;3.22;;;25.70;99.90;;;;;;5089888;28;20096;-84
2022/08/30 07:31:20;;;;;;;4.03;2.90;;;25.80;99.90;;;;;;5089866;28;20398;-75
2022/08/30 07:33:46;;;;;;;4.70;3.10;;;25.80;99.90;;;;;;5098192;28;20559;-74
2022/08/30 07:36:13;;;;;;;4.30;3.20;;;25.90;99.90;;;;;;5087992;28;20052;-73
2022/08/30 07:38:38;;;;;;;7.32;3.05;;;26.00;99.90;;;;;;5092182;28;20031;-72
2022/08/30 07:41:05;;;;;;;5.35;2.85;;;26.10;99.90;;;;;;5105987;28;20020;-72
2022/08/30 07:43:32;;;;;;;3.35;2.70;;;26.10;99.90;;;;;;5101057;28;20051;-73
2022/08/30 07:46:03;;;;;;;7.85;2.85;;;26.20;99.90;;;;;;5108964;28;20024;-71
2022/08/30 07:48:29;;;;;;;6.15;3.05;;;26.20;99.90;;;;;;5105669;28;20016;-74
2022/08/30 07:50:55;;;;;;;3.78;2.60;;;26.30;99.90;;;;;;5109978;28;20019;-73
2022/08/30 07:53:21;;;;;;;3.88;3.08;;;26.40;99.90;;;;;;5101597;28;20383;-73
2022/08/30 07:55:47;;;;;;;4.88;3.08;;;26.50;99.90;;;;;;5092165;28;20039;-74
2022/08/30 07:58:13;;;;;;;9.20;3.10;;;26.50;99.90;;;;;;5094135;28;20583;-75
2022/08/30 08:00:39;;;;;;;5.70;3.03;;;26.60;99.90;;;;;;5091219;28;20043;-73
2022/08/30 08:03:06;;;;;;;11.43;3.10;;;26.60;99.90;;;;;;5093088;28;20020;-73
2022/08/30 08:05:43;;;;;;;3.55;2.72;;;26.70;99.90;;;;;;5091743;28;20409;-73
2022/08/30 08:08:09;;;;;;;3.33;2.95;;;26.80;99.90;;;;;;5092975;28;20028;-73
2022/08/30 08:10:37;;;;;;;7.75;2.80;;;26.80;99.90;;;;;;5090884;28;20027;-73
2022/08/30 08:13:04;;;;;;;3.28;2.58;;;26.90;99.90;;;;;;5093601;28;20031;-74
2022/08/30 08:15:30;;;;;;;3.10;2.47;;;27.00;99.90;;;;;;5097459;28;20043;-73
2022/08/30 08:17:56;;;;;;;2.70;2.50;;;27.00;99.40;;;;;;5093621;28;20887;-73
2022/08/30 08:20:24;;;;;;;2.53;2.30;;;27.10;99.10;;;;;;5093291;28;20107;-73
2022/08/30 08:22:50;;;;;;;2.83;2.50;;;27.20;98.20;;;;;;5090314;28;20015;-73
2022/08/30 08:25:16;;;;;;;2.97;2.15;;;27.30;98.80;;;;;;5093841;28;20405;-73
2022/08/30 08:27:45;;;;;;;3.58;2.60;;;27.30;98.50;;;;;;5091286;28;20117;-73
2022/08/30 08:30:11;;;;;;;7.30;2.40;;;27.40;98.50;;;;;;5097113;28;20073;-73
2022/08/30 08:32:36;;;;;;;2.83;2.47;;;27.40;98.30;;;;;;5092575;28;20035;-74
2022/08/30 08:35:02;;;;;;;4.45;3.00;;;27.50;98.30;;;;;;5093540;28;20028;-74
2022/08/30 08:37:28;;;;;;;3.85;2.60;;;27.50;98.80;;;;;;5088458;28;20640;-74
2022/08/30 08:39:54;;;;;;;15.07;6.93;;;27.50;98.90;;;;;;5094182;28;20032;-74
2022/08/30 08:42:30;;;;;;;5.32;3.13;;;27.50;99.10;;;;;;5088388;28;20019;-74
2022/08/30 08:45:04;;;;;;;4.50;2.33;;;27.60;98.70;;;;;;5092243;28;20466;-75
2022/08/30 08:47:58;;;;;;;3.30;2.50;;;27.70;98.60;;;;;;5088008;28;20474;-78
2022/08/30 08:50:24;;;;;;;2.60;1.77;;;27.80;98.50;;;;;;5102424;28;20512;-79
2022/08/30 08:56:02;;;;;;;2.95;2.15;;;27.90;97.30;;;;;;5089943;28;20042;-77
2022/08/30 08:58:40;;;;;;;2.40;2.20;;;28.00;97.20;;;;;;5091224;28;20522;-77
2022/08/30 09:01:07;;;;;;;4.22;2.65;;;28.00;97.20;;;;;;5087446;28;20028;-78
2022/08/30 09:03:34;;;;;;;3.92;2.33;;;28.10;96.80;;;;;;5092588;28;20027;-78
2022/08/30 09:06:14;;;;;;;2.65;2.38;;;28.10;96.40;;;;;;5089716;28;20028;-76
2022/08/30 09:08:40;;;;;;;5.75;2.50;;;28.20;96.80;;;;;;5090119;28;20024;-77
2022/08/30 09:11:15;;;;;;;3.90;2.38;;;28.20;96.70;;;;;;5105362;28;20023;-76
2022/08/30 09:13:41;;;;;;;2.65;2.30;;;28.20;96.50;;;;;;5094341;28;20040;-77
2022/08/30 09:16:07;;;;;;;5.35;2.40;;;28.30;96.50;;;;;;5090069;28;20040;-78
2022/08/30 09:18:46;;;;;;;10.65;2.95;;;28.40;96.00;;;;;;5094127;28;20442;-76
2022/08/30 09:21:19;;;;;;;3.80;2.35;;;28.50;95.30;;;;;;5088906;28;20024;-77
2022/08/30 09:23:54;;;;;;;4.45;2.55;;;28.50;96.60;;;;;;5093137;28;20104;-80
2022/08/30 09:26:32;;;;;;;2.47;2.20;;;28.70;95.90;;;;;;5089594;28;20035;-80
2022/08/30 09:28:59;;;;;;;3.53;2.42;;;28.70;95.50;;;;;;5093757;28;20020;-77
2022/08/30 09:31:30;;;;;;;3.67;2.35;;;28.80;95.70;;;;;;5090896;28;20118;-77
2022/08/30 09:34:05;;;;;;;2.50;2.22;;;28.80;95.70;;;;;;5093024;28;20126;-77
2022/08/30 09:36:54;;;;;;;2.67;2.35;;;29.00;94.70;;;;;;5091607;28;20051;-80
2022/08/30 09:39:36;;;;;;;7.35;2.78;;;29.00;93.80;;;;;;5089705;28;20040;-81
2022/08/30 09:42:24;;;;;;;6.53;2.47;;;29.00;96.80;;;;;;5094883;28;20024;-82
2022/08/30 09:44:51;;;;;;;2.58;2.25;;;28.80;96.60;;;;;;5089978;28;20020;-80
2022/08/30 09:47:27;;;;;;;3.35;2.58;;;28.70;97.30;;;;;;5092989;28;20089;-81
2022/08/30 09:50:05;;;;;;;4.93;2.65;;;28.40;97.30;;;;;;5101486;28;20085;-79
2022/08/30 09:52:55;;;;;;;5.13;2.33;;;28.20;98.50;;;;;;5093452;28;20095;-79
2022/08/30 09:56:08;;;;;;;9.38;2.60;;;27.90;96.90;;;;;;5103115;28;20023;-79
2022/08/30 09:58:53;;;;;;;16.13;2.60;;;27.80;96.80;;;;;;5105916;28;20116;-78
2022/08/30 10:01:29;;;;;;;7.78;2.28;;;27.60;96.70;;;;;;5109605;28;20164;-76
2022/08/30 10:04:13;;;;;;;6.10;2.45;;;27.60;97.50;;;;;;5104842;28;20058;-78
2022/08/30 10:06:51;;;;;;;2.03;1.92;;;27.70;97.20;;;;;;5070994;28;20012;-79
2022/08/30 10:09:41;;;;;;;6.75;2.78;;;27.70;96.60;;;;;;5104937;28;20031;-79
2022/08/30 10:12:16;;;;;;;4.43;2.40;;;27.80;96.30;;;;;;5092947;28;20031;-80
2022/08/30 10:14:54;;;;;;;4.43;2.42;;;27.80;96.70;;;;;;5105435;28;20062;-79
2022/08/30 10:17:46;;;;;;;5.78;2.13;;;27.90;97.10;;;;;;5107482;28;20028;-79
2022/08/30 10:20:40;;;;;;;2.50;2.30;;;28.00;96.00;;;;;;5091320;28;20133;-79
2022/08/30 10:23:13;;;;;;;3.20;2.42;;;27.80;95.70;;;;;;5094481;28;20046;-79
2022/08/30 10:25:58;;;;;;;5.32;2.38;;;27.70;96.30;;;;;;5084944;28;20369;-79
2022/08/30 10:28:34;;;;;;;3.22;2.50;;;27.80;97.30;;;;;;5094748;28;20118;-79
2022/08/30 10:31:31;;;;;;;5.30;2.40;;;27.80;97.80;;;;;;5098386;28;20023;-79
2022/08/30 10:34:02;;;;;;;4.95;2.03;;;27.90;97.70;;;;;;5100679;28;20044;-79
2022/08/30 10:36:41;;;;;;;4.07;2.25;;;28.00;97.90;;;;;;5109163;28;20406;-79
2022/08/30 10:39:12;;;;;;;6.22;2.13;;;28.20;96.60;;;;;;5104547;28;20516;-78
2022/08/30 10:41:43;;;;;;;3.28;2.33;;;28.20;96.50;;;;;;5070074;28;20090;-78
2022/08/30 10:44:38;;;;;;;2.85;2.50;;;28.20;97.40;;;;;;5104094;28;20486;-78
2022/08/30 10:47:43;;;;;;;2.75;2.10;;;28.10;98.60;;;;;;5055304;28;20036;-77
2022/08/30 10:50:17;;;;;;;2.78;2.40;;;28.00;99.10;;;;;;5088834;28;20024;-78
2022/08/30 10:52:53;;;;;;;3.85;2.58;;;28.10;99.20;;;;;;5092825;28;20022;-78
2022/08/30 10:55:43;;;;;;;2.55;2.17;;;28.00;98.70;;;;;;5107119;28;20516;-79
2022/08/30 10:58:11;;;;;;;3.80;2.00;;;28.00;96.80;;;;;;5105213;28;20020;-78
2022/08/30 11:01:07;;;;;;;4.13;2.70;;;28.10;96.20;;;;;;5109847;28;20038;-78
2022/08/30 11:03:51;;;;;;;4.32;2.20;;;28.30;97.90;;;;;;5103874;28;20381;-78
2022/08/30 11:06:17;;;;;;;2.58;2.20;;;28.40;94.80;;;;;;5108536;28;20397;-78
2022/08/30 11:09:04;;;;;;;2.75;2.20;;;28.50;96.00;;;;;;5105197;28;20022;-78
2022/08/30 11:12:14;;;;;;;2.95;2.35;;;28.60;97.90;;;;;;5109339;28;20028;-78
2022/08/30 11:14:42;;;;;;;2.72;2.33;;;28.20;99.70;;;;;;5105103;28;20050;-78
2022/08/30 11:17:30;;;;;;;4.65;2.45;;;28.10;99.90;;;;;;5109306;28;20394;-78
2022/08/30 11:19:58;;;;;;;4.03;2.97;;;28.10;99.90;;;;;;5109302;28;20106;-77
2022/08/30 11:22:34;;;;;;;4.60;2.70;;;27.90;99.90;;;;;;5110615;28;20060;-78
2022/08/30 11:25:08;;;;;;;4.50;2.40;;;27.80;99.90;;;;;;5107909;28;20024;-77
2022/08/30 11:28:00;;;;;;;3.72;2.45;;;27.60;99.90;;;;;;5106218;28;20024;-78
2022/08/30 11:30:25;;;;;;;2.45;2.20;;;27.50;99.90;;;;;;5106146;28;20595;-78
2022/08/30 11:33:02;;;;;;;4.28;2.25;;;27.60;99.90;;;;;;5105032;28;20031;-77
2022/08/30 11:35:34;;;;;;;2.85;2.55;;;27.60;99.90;;;;;;5108138;28;20054;-80
2022/08/30 11:38:09;;;;;;;3.00;2.38;;;27.70;99.90;;;;;;5105807;28;20027;-75
2022/08/30 11:40:47;;;;;;;4.57;2.90;;;27.60;99.90;;;;;;5085440;28;20028;-78
2022/08/30 11:43:25;;;;;;;3.17;2.60;;;27.60;99.90;;;;;;5096436;28;20046;-75
2022/08/30 11:45:54;;;;;;;3.47;2.53;;;27.70;99.90;;;;;;5092320;28;20387;-80
2022/08/30 11:48:41;;;;;;;7.07;2.72;;;27.80;99.90;;;;;;5093167;28;20035;-82
2022/08/30 11:51:21;;;;;;;3.72;2.53;;;27.70;99.90;;;;;;5092118;28;20024;-79
2022/08/30 11:54:00;;;;;;;3.80;2.83;;;27.60;99.90;;;;;;5094625;28;20026;-81
2022/08/30 11:57:05;;;;;;;6.10;2.92;;;27.60;99.90;;;;;;5107978;28;20031;-81
2022/08/30 11:59:37;;;;;;;2.53;2.33;;;27.70;99.90;;;;;;5102065;28;20059;-80
2022/08/30 12:02:04;;;;;;;4.95;2.72;;;27.80;99.90;;;;;;5108771;28;20749;-77
2022/08/30 12:04:44;;;;;;;6.30;3.00;;;27.80;99.90;;;;;;5095204;28;20027;-79
2022/08/30 12:07:31;;;;;;;4.18;2.60;;;27.80;99.90;;;;;;5091070;28;20063;-77
2022/08/30 12:09:58;;;;;;;3.00;2.70;;;27.80;99.90;;;;;;5105155;28;20030;-77
2022/08/30 12:12:25;;;;;;;5.88;2.70;;;28.40;99.90;;;;;;5107036;28;20151;-78
2022/08/30 12:14:56;;;;;;;3.10;2.80;;;29.50;99.90;;;;;;5106423;28;20043;-77
2022/08/30 12:20:41;;;;;;;8.05;2.63;;;31.70;97.40;;;;;;5107809;28;20034;-79
2022/08/30 12:23:29;;;;;;;4.70;2.78;;;32.90;96.20;;;;;;5104716;28;20542;-79
2022/08/30 12:26:14;;;;;;;3.58;2.45;;;33.50;95.70;;;;;;5087207;28;20058;-78
2022/08/30 12:28:41;;;;;;;5.57;2.75;;;34.30;95.20;;;;;;5098340;28;20030;-79
2022/08/30 12:31:15;;;;;;;4.72;2.30;;;35.10;94.40;;;;;;5107304;28;20147;-81
2022/08/30 12:33:47;;;;;;;5.72;2.25;;;36.00;92.80;;;;;;5103222;28;20028;-81
2022/08/30 12:36:48;;;;;;;2.83;2.45;;;36.50;91.30;;;;;;5108634;28;20071;-80
2022/08/30 12:39:23;;;;;;;4.47;2.33;;;36.60;91.50;;;;;;5099928;28;20502;-80
2022/08/30 12:41:49;;;;;;;2.50;2.30;;;37.60;90.40;;;;;;5108776;28;20026;-81
2022/08/30 12:44:23;;;;;;;6.97;2.08;;;38.30;90.00;;;;;;5102566;28;20027;-80
2022/08/30 12:46:53;;;;;;;5.47;2.53;;;38.80;89.20;;;;;;5108668;28;20080;-81
2022/08/30 12:49:21;;;;;;;2.65;2.38;;;39.00;88.30;;;;;;5101578;28;20035;-80
2022/08/30 12:51:46;;;;;;;4.85;2.30;;;39.40;87.10;;;;;;5109699;28;20027;-81
2022/08/30 12:54:17;;;;;;;4.30;2.22;;;40.00;85.60;;;;;;5102564;28;20069;-82
2022/08/30 12:56:56;;;;;;;3.07;2.40;;;39.50;85.50;;;;;;5088022;28;20074;-80
2022/08/30 12:59:44;;;;;;;5.68;2.58;;;38.80;87.20;;;;;;5102777;28;20027;-79
2022/08/30 13:02:20;;;;;;;3.65;2.10;;;38.60;88.60;;;;;;5106748;28;20027;-82
2022/08/30 13:04:48;;;;;;;2.95;2.08;;;38.10;88.90;;;;;;5100754;28;20028;-80
2022/08/30 13:07:32;;;;;;;6.25;2.47;;;38.20;89.50;;;;;;5107441;28;20039;-82
2022/08/30 13:10:12;;;;;;;6.20;2.42;;;38.00;90.00;;;;;;5104546;28;20081;-82
2022/08/30 13:12:39;;;;;;;5.60;2.33;;;38.40;88.20;;;;;;5104949;28;20035;-81